Time;durP1;ratioP1;P1;durP2;ratioP2;P2;SDS_P1;SDS_P2;PMS_P1;PMS_P2;Temp;Humidity;BMP_temperature;BMP_pressure;BME280_temperature;BME280_humidity;BME280_pressure;Samples;Min_cycle;Max_cycle;Signal;HPM_P1;HPM_P2
2023/07/15 00:01:23;;;;;;;0.08;0.08;;;;;;;;;;5072096;28;20244;-78
2023/07/15 00:03:50;;;;;;;0.10;0.10;;;;;;;;;;5077660;28;20258;-78
2023/07/15 00:06:17;;;;;;;0.10;0.10;;;;;;;;;;5072317;28;20249;-78
2023/07/15 00:08:43;;;;;;;0.00;0.00;;;;;;;;;;5077497;28;20204;-78
2023/07/15 00:11:12;;;;;;;0.10;0.10;;;;;;;;;;5070345;28;20593;-78
2023/07/15 00:13:39;;;;;;;0.00;0.00;;;;;;;;;;5078733;28;20204;-78
2023/07/15 00:16:08;;;;;;;0.10;0.10;;;;;;;;;;5069030;28;20570;-78
2023/07/15 00:18:34;;;;;;;0.38;0.38;;;;;;;;;;5080093;28;20508;-77
2023/07/15 00:21:01;;;;;;;0.63;0.63;;;;;;;;;;5067696;28;20313;-78
2023/07/15 00:23:29;;;;;;;0.00;0.00;;;;;;;;;;5081217;28;20204;-78
2023/07/15 00:25:55;;;;;;;0.10;0.10;;;;;;;;;;5066424;28;20292;-78
2023/07/15 00:28:22;;;;;;;0.10;0.10;;;;;;;;;;5082769;28;20278;-78
2023/07/15 00:30:49;;;;;;;0.10;0.10;;;;;;;;;;5063643;28;20447;-78
2023/07/15 00:33:19;;;;;;;0.00;0.00;;;;;;;;;;5085339;28;20231;-78
2023/07/15 00:35:45;;;;;;;0.00;0.00;;;;;;;;;;5063662;28;20258;-78
2023/07/15 00:38:12;;;;;;;0.10;0.10;;;;;;;;;;5085292;28;20298;-78
2023/07/15 00:40:40;;;;;;;0.00;0.00;;;;;;;;;;5061959;28;20578;-78
2023/07/15 00:43:25;;;;;;;0.10;0.10;;;;;;;;;;5086374;28;20234;-78
2023/07/15 00:46:22;;;;;;;0.10;0.10;;;;;;;;;;5065229;28;20492;-78
2023/07/15 00:48:51;;;;;;;0.10;0.10;;;;;;;;;;5075738;28;20395;-78
2023/07/15 00:51:19;;;;;;;0.10;0.10;;;;;;;;;;5072133;28;20258;-78
2023/07/15 00:53:45;;;;;;;0.00;0.00;;;;;;;;;;5076693;28;20203;-78
2023/07/15 00:56:12;;;;;;;0.10;0.10;;;;;;;;;;5070495;28;20238;-78
2023/07/15 00:58:39;;;;;;;0.10;0.10;;;;;;;;;;5078067;28;20527;-78
2023/07/15 01:01:07;;;;;;;0.05;0.05;;;;;;;;;;5068583;28;20596;-78
2023/07/15 01:03:33;;;;;;;0.08;0.08;;;;;;;;;;5079340;28;20210;-78
2023/07/15 01:05:59;;;;;;;0.10;0.10;;;;;;;;;;5067019;28;20287;-79
2023/07/15 01:08:26;;;;;;;0.10;0.10;;;;;;;;;;5081444;28;20257;-78
2023/07/15 01:10:52;;;;;;;0.10;0.10;;;;;;;;;;5065074;28;20242;-78
2023/07/15 01:13:18;;;;;;;0.08;0.08;;;;;;;;;;5083407;28;20204;-79
2023/07/15 01:15:46;;;;;;;0.10;0.10;;;;;;;;;;5063170;28;20264;-79
2023/07/15 01:18:14;;;;;;;0.00;0.00;;;;;;;;;;5084791;28;20206;-78
2023/07/15 01:20:40;;;;;;;0.00;0.00;;;;;;;;;;5061906;28;20286;-78
2023/07/15 01:23:08;;;;;;;0.00;0.00;;;;;;;;;;5086310;28;20439;-78
2023/07/15 01:25:35;;;;;;;0.00;0.00;;;;;;;;;;5059695;28;20252;-78
2023/07/15 01:28:02;;;;;;;0.73;0.73;;;;;;;;;;5089605;28;20395;-78
2023/07/15 01:30:31;;;;;;;0.10;0.10;;;;;;;;;;5059030;28;20241;-78
2023/07/15 01:32:58;;;;;;;0.10;0.10;;;;;;;;;;5088736;28;20207;-78
2023/07/15 01:35:25;;;;;;;0.10;0.10;;;;;;;;;;5056891;28;20242;-79
2023/07/15 01:37:52;;;;;;;0.00;0.00;;;;;;;;;;5091177;28;20203;-78
2023/07/15 01:40:19;;;;;;;0.10;0.10;;;;;;;;;;5055532;28;20225;-79
2023/07/15 01:42:46;;;;;;;0.00;0.00;;;;;;;;;;5092100;28;20219;-78
2023/07/15 01:45:12;;;;;;;0.10;0.10;;;;;;;;;;5057651;28;20276;-77
2023/07/15 01:47:38;;;;;;;0.10;0.10;;;;;;;;;;5097404;28;20207;-78
2023/07/15 01:50:05;;;;;;;0.00;0.00;;;;;;;;;;5066277;28;20274;-78
2023/07/15 01:52:32;;;;;;;0.00;0.00;;;;;;;;;;5071765;28;20250;-78
2023/07/15 01:54:58;;;;;;;0.10;0.10;;;;;;;;;;5066273;28;20281;-78
2023/07/15 01:57:27;;;;;;;0.08;0.08;;;;;;;;;;5071606;28;20249;-78
2023/07/15 01:59:57;;;;;;;0.00;0.00;;;;;;;;;;5066138;28;20275;-79
2023/07/15 02:02:24;;;;;;;0.00;0.00;;;;;;;;;;5088344;28;20256;-78
2023/07/15 02:04:50;;;;;;;0.08;0.08;;;;;;;;;;5066340;28;20400;-79
2023/07/15 02:07:17;;;;;;;0.00;0.00;;;;;;;;;;5088135;28;20242;-78
2023/07/15 02:09:43;;;;;;;0.00;0.00;;;;;;;;;;5066351;28;20207;-79
2023/07/15 02:12:10;;;;;;;0.00;0.00;;;;;;;;;;5088112;28;20247;-78
2023/07/15 02:14:38;;;;;;;0.10;0.10;;;;;;;;;;5066301;28;20211;-78
2023/07/15 02:17:05;;;;;;;0.00;0.00;;;;;;;;;;5086987;28;20244;-78
2023/07/15 02:19:32;;;;;;;0.00;0.00;;;;;;;;;;5066266;28;20215;-78
2023/07/15 02:21:58;;;;;;;0.10;0.10;;;;;;;;;;5085295;28;20244;-78
2023/07/15 02:24:24;;;;;;;0.00;0.00;;;;;;;;;;5068046;28;20217;-78
2023/07/15 02:26:51;;;;;;;0.10;0.10;;;;;;;;;;5083340;28;20236;-78
2023/07/15 02:29:17;;;;;;;0.10;0.10;;;;;;;;;;5069971;28;20206;-79
2023/07/15 02:31:45;;;;;;;0.00;0.00;;;;;;;;;;5081354;28;20269;-78
2023/07/15 02:34:13;;;;;;;0.00;0.00;;;;;;;;;;5071483;28;20206;-78
2023/07/15 02:36:39;;;;;;;0.73;0.73;;;;;;;;;;5078728;28;20281;-78
2023/07/15 02:39:05;;;;;;;0.10;0.10;;;;;;;;;;5074179;28;20206;-79
2023/07/15 02:41:32;;;;;;;0.10;0.10;;;;;;;;;;5077548;28;20247;-79
2023/07/15 02:43:59;;;;;;;0.10;0.10;;;;;;;;;;5075006;28;20432;-78
2023/07/15 02:46:25;;;;;;;0.00;0.00;;;;;;;;;;5075874;28;20240;-79
2023/07/15 02:48:53;;;;;;;0.10;0.10;;;;;;;;;;5076718;28;20278;-78
2023/07/15 02:51:20;;;;;;;0.05;0.05;;;;;;;;;;5074115;28;20240;-78
2023/07/15 02:53:47;;;;;;;0.08;0.08;;;;;;;;;;5077941;28;20394;-78
2023/07/15 02:56:13;;;;;;;0.10;0.10;;;;;;;;;;5071591;28;20249;-78
2023/07/15 02:58:41;;;;;;;0.10;0.10;;;;;;;;;;5079639;28;20277;-78
2023/07/15 03:01:07;;;;;;;0.10;0.10;;;;;;;;;;5070684;28;20233;-78
2023/07/15 03:03:33;;;;;;;0.10;0.10;;;;;;;;;;5081286;28;20273;-78
2023/07/15 03:06:01;;;;;;;0.10;0.10;;;;;;;;;;5068741;28;20309;-78
2023/07/15 03:08:27;;;;;;;0.00;0.00;;;;;;;;;;5083084;28;20281;-78
2023/07/15 03:10:54;;;;;;;0.10;0.10;;;;;;;;;;5067267;28;20513;-78
2023/07/15 03:13:20;;;;;;;0.00;0.00;;;;;;;;;;5084756;28;20447;-78
2023/07/15 03:15:47;;;;;;;0.03;0.03;;;;;;;;;;5064943;28;20544;-78
2023/07/15 03:18:14;;;;;;;0.00;0.00;;;;;;;;;;5086665;28;20399;-78
2023/07/15 03:20:40;;;;;;;0.10;0.10;;;;;;;;;;5063210;28;20501;-78
2023/07/15 03:23:08;;;;;;;0.20;0.20;;;;;;;;;;5088022;28;20476;-78
2023/07/15 03:25:34;;;;;;;0.10;0.10;;;;;;;;;;5061625;28;20559;-78
2023/07/15 03:28:01;;;;;;;0.00;0.00;;;;;;;;;;5089591;28;20205;-78
2023/07/15 03:30:27;;;;;;;0.00;0.00;;;;;;;;;;5059568;28;20283;-78
2023/07/15 03:32:56;;;;;;;0.10;0.10;;;;;;;;;;5091454;28;20276;-78
2023/07/15 03:35:23;;;;;;;0.00;0.00;;;;;;;;;;5058329;28;20205;-78
2023/07/15 03:37:49;;;;;;;0.10;0.10;;;;;;;;;;5092577;28;20275;-79
2023/07/15 03:40:17;;;;;;;0.10;0.10;;;;;;;;;;5056251;28;20557;-79
2023/07/15 03:42:43;;;;;;;0.10;0.10;;;;;;;;;;5094261;28;20229;-77
2023/07/15 03:45:10;;;;;;;0.10;0.10;;;;;;;;;;5054405;28;20240;-75
2023/07/15 03:47:37;;;;;;;0.10;0.10;;;;;;;;;;5095867;28;20212;-76
2023/07/15 03:50:03;;;;;;;0.00;0.00;;;;;;;;;;5064430;28;20233;-75
2023/07/15 03:52:30;;;;;;;0.00;0.00;;;;;;;;;;5086297;28;20239;-76
2023/07/15 03:54:56;;;;;;;0.10;0.10;;;;;;;;;;5064245;28;20206;-76
2023/07/15 03:57:24;;;;;;;2.38;2.28;;;;;;;;;;5086022;28;20243;-76
2023/07/15 03:59:50;;;;;;;0.10;0.10;;;;;;;;;;5063808;28;20240;-76
2023/07/15 04:02:17;;;;;;;0.22;0.22;;;;;;;;;;5085993;28;20278;-75
2023/07/15 04:04:44;;;;;;;0.10;0.10;;;;;;;;;;5063966;28;20213;-76
2023/07/15 04:07:10;;;;;;;0.10;0.10;;;;;;;;;;5085548;28;20241;-76
2023/07/15 04:09:36;;;;;;;0.08;0.08;;;;;;;;;;5063847;28;20239;-76
2023/07/15 04:12:03;;;;;;;0.00;0.00;;;;;;;;;;5084504;28;20244;-76
2023/07/15 04:14:31;;;;;;;0.00;0.00;;;;;;;;;;5064646;28;20276;-76
2023/07/15 04:16:57;;;;;;;0.10;0.10;;;;;;;;;;5082831;28;20320;-76
2023/07/15 04:19:23;;;;;;;0.10;0.10;;;;;;;;;;5066288;28;20208;-75
2023/07/15 04:21:50;;;;;;;0.00;0.00;;;;;;;;;;5080700;28;20298;-76
2023/07/15 04:24:16;;;;;;;0.65;0.60;;;;;;;;;;5068233;28;20244;-76
2023/07/15 04:26:43;;;;;;;0.00;0.00;;;;;;;;;;5078878;28;20312;-76
2023/07/15 04:29:10;;;;;;;0.10;0.10;;;;;;;;;;5070252;28;20434;-76
2023/07/15 04:31:38;;;;;;;0.47;0.47;;;;;;;;;;5077031;28;20239;-76
2023/07/15 04:34:04;;;;;;;0.00;0.00;;;;;;;;;;5071915;28;20212;-76
2023/07/15 04:36:31;;;;;;;0.10;0.10;;;;;;;;;;5075624;28;20258;-76
2023/07/15 04:38:57;;;;;;;0.10;0.10;;;;;;;;;;5073321;28;20281;-76
2023/07/15 04:41:23;;;;;;;0.00;0.00;;;;;;;;;;5073505;28;20253;-76
2023/07/15 04:43:50;;;;;;;0.80;0.80;;;;;;;;;;5075238;28;20403;-76
2023/07/15 04:46:16;;;;;;;0.10;0.10;;;;;;;;;;5071611;28;20483;-75
2023/07/15 04:48:44;;;;;;;0.00;0.00;;;;;;;;;;5077284;28;20218;-75
2023/07/15 04:51:10;;;;;;;0.00;0.00;;;;;;;;;;5069330;28;20309;-75
2023/07/15 04:53:42;;;;;;;0.20;0.20;;;;;;;;;;5078945;28;20237;-76
2023/07/15 04:56:09;;;;;;;0.08;0.08;;;;;;;;;;5069516;28;20246;-75
2023/07/15 04:58:35;;;;;;;0.08;0.08;;;;;;;;;;5078914;28;20205;-75
2023/07/15 05:01:02;;;;;;;0.00;0.00;;;;;;;;;;5067523;28;20242;-75
2023/07/15 05:03:28;;;;;;;0.10;0.10;;;;;;;;;;5080993;28;20207;-75
2023/07/15 05:05:56;;;;;;;0.17;0.17;;;;;;;;;;5065945;28;20256;-74
2023/07/15 05:08:23;;;;;;;0.10;0.10;;;;;;;;;;5082437;28;20280;-75
2023/07/15 05:10:49;;;;;;;0.20;0.20;;;;;;;;;;5064478;28;20475;-75
2023/07/15 05:13:16;;;;;;;0.00;0.00;;;;;;;;;;5083839;28;20225;-74
2023/07/15 05:15:43;;;;;;;0.10;0.10;;;;;;;;;;5062590;28;20242;-75
2023/07/15 05:18:09;;;;;;;0.00;0.00;;;;;;;;;;5086494;28;20503;-74
2023/07/15 05:20:37;;;;;;;0.10;0.10;;;;;;;;;;5064725;28;20307;-75
2023/07/15 05:23:05;;;;;;;0.00;0.00;;;;;;;;;;5091241;28;20413;-75
2023/07/15 05:25:32;;;;;;;0.20;0.20;;;;;;;;;;5063067;28;20300;-75
2023/07/15 05:27:58;;;;;;;0.10;0.10;;;;;;;;;;5092246;28;20215;-74
2023/07/15 05:30:24;;;;;;;0.10;0.10;;;;;;;;;;5061422;28;20257;-75
2023/07/15 05:32:51;;;;;;;0.10;0.10;;;;;;;;;;5094279;28;20202;-75
2023/07/15 05:35:17;;;;;;;0.10;0.10;;;;;;;;;;5058958;28;20206;-75
2023/07/15 05:37:44;;;;;;;0.00;0.00;;;;;;;;;;5096185;28;20499;-76
2023/07/15 05:40:12;;;;;;;0.08;0.08;;;;;;;;;;5057221;28;20274;-74
2023/07/15 05:42:39;;;;;;;0.00;0.00;;;;;;;;;;5097485;28;20297;-75
2023/07/15 05:45:11;;;;;;;0.10;0.10;;;;;;;;;;5066495;28;20219;-75
2023/07/15 05:47:37;;;;;;;0.00;0.00;;;;;;;;;;5088842;28;20305;-74
2023/07/15 05:50:04;;;;;;;0.10;0.10;;;;;;;;;;5066662;28;20456;-74
2023/07/15 05:52:31;;;;;;;0.00;0.00;;;;;;;;;;5088946;28;20556;-73
2023/07/15 05:54:57;;;;;;;0.00;0.00;;;;;;;;;;5066531;28;20260;-73
2023/07/15 05:57:25;;;;;;;0.00;0.00;;;;;;;;;;5088402;28;20594;-73
2023/07/15 05:59:51;;;;;;;0.10;0.10;;;;;;;;;;5066385;28;20427;-72
2023/07/15 06:02:18;;;;;;;0.00;0.00;;;;;;;;;;5088128;28;20260;-74
2023/07/15 06:04:44;;;;;;;0.00;0.00;;;;;;;;;;5066036;28;20274;-74
2023/07/15 06:07:10;;;;;;;0.10;0.10;;;;;;;;;;5088269;28;20312;-75
2023/07/15 06:09:37;;;;;;;0.10;0.10;;;;;;;;;;5065949;28;20234;-74
2023/07/15 06:12:03;;;;;;;0.17;0.17;;;;;;;;;;5086929;28;20316;-73
2023/07/15 06:14:31;;;;;;;0.17;0.13;;;;;;;;;;5066898;28;20450;-74
2023/07/15 06:16:57;;;;;;;0.05;0.05;;;;;;;;;;5085227;28;20313;-74
2023/07/15 06:19:24;;;;;;;0.10;0.10;;;;;;;;;;5068567;28;20214;-74
2023/07/15 06:21:51;;;;;;;0.05;0.05;;;;;;;;;;5083113;28;20288;-74
2023/07/15 06:24:18;;;;;;;0.10;0.10;;;;;;;;;;5069643;28;20409;-75
2023/07/15 06:26:44;;;;;;;0.17;0.17;;;;;;;;;;5081596;28;20268;-75
2023/07/15 06:29:10;;;;;;;0.00;0.00;;;;;;;;;;5071698;28;20208;-74
2023/07/15 06:31:38;;;;;;;0.10;0.10;;;;;;;;;;5079525;28;20261;-74
2023/07/15 06:34:05;;;;;;;0.00;0.00;;;;;;;;;;5073380;28;20275;-74
2023/07/15 06:36:31;;;;;;;0.00;0.00;;;;;;;;;;5077675;28;20243;-75
2023/07/15 06:38:57;;;;;;;0.00;0.00;;;;;;;;;;5075404;28;20208;-75
2023/07/15 06:41:24;;;;;;;0.00;0.00;;;;;;;;;;5078090;28;20238;-76
2023/07/15 06:43:50;;;;;;;0.00;0.00;;;;;;;;;;5076952;28;20295;-76
2023/07/15 06:46:16;;;;;;;0.00;0.00;;;;;;;;;;5073821;28;20257;-75
2023/07/15 06:48:45;;;;;;;0.10;0.10;;;;;;;;;;5079119;28;20208;-75
2023/07/15 06:51:14;;;;;;;0.00;0.00;;;;;;;;;;5072297;28;20242;-75
2023/07/15 06:53:40;;;;;;;0.00;0.00;;;;;;;;;;5079582;28;20395;-75
2023/07/15 06:56:07;;;;;;;0.00;0.00;;;;;;;;;;5070998;28;20301;-74
2023/07/15 06:58:33;;;;;;;0.08;0.08;;;;;;;;;;5081410;28;20270;-76
2023/07/15 07:00:59;;;;;;;0.00;0.00;;;;;;;;;;5068688;28;20258;-75
2023/07/15 07:03:27;;;;;;;0.00;0.00;;;;;;;;;;5083294;28;20384;-75
2023/07/15 07:05:55;;;;;;;0.00;0.00;;;;;;;;;;5067149;28;20244;-75
2023/07/15 07:08:22;;;;;;;0.00;0.00;;;;;;;;;;5084517;28;20434;-75
2023/07/15 07:10:50;;;;;;;0.00;0.00;;;;;;;;;;5065762;28;20306;-75
2023/07/15 07:13:16;;;;;;;0.10;0.10;;;;;;;;;;5085611;28;20441;-75
2023/07/15 07:15:43;;;;;;;0.03;0.03;;;;;;;;;;5063901;28;20306;-75
2023/07/15 07:18:09;;;;;;;0.00;0.00;;;;;;;;;;5087598;28;20454;-75
2023/07/15 07:20:36;;;;;;;0.00;0.00;;;;;;;;;;5062207;28;20276;-75
2023/07/15 07:23:03;;;;;;;0.10;0.10;;;;;;;;;;5089284;28;20277;-75
2023/07/15 07:25:30;;;;;;;0.00;0.00;;;;;;;;;;5060309;28;20250;-75
2023/07/15 07:27:56;;;;;;;0.00;0.00;;;;;;;;;;5090803;28;20279;-75
2023/07/15 07:30:23;;;;;;;0.00;0.00;;;;;;;;;;5058537;28;20204;-75
2023/07/15 07:32:49;;;;;;;0.65;0.65;;;;;;;;;;5092713;28;20454;-76
2023/07/15 07:35:17;;;;;;;0.00;0.00;;;;;;;;;;5056228;28;20231;-75
2023/07/15 07:37:43;;;;;;;0.00;0.00;;;;;;;;;;5094308;28;20204;-75
2023/07/15 07:40:11;;;;;;;0.00;0.00;;;;;;;;;;5054452;28;20204;-74
2023/07/15 07:42:38;;;;;;;0.10;0.10;;;;;;;;;;5095016;28;20262;-76
2023/07/15 07:45:12;;;;;;;0.00;0.00;;;;;;;;;;5064158;28;20231;-76
2023/07/15 07:47:38;;;;;;;0.10;0.10;;;;;;;;;;5052832;28;20223;-76
2023/07/15 07:50:05;;;;;;;0.10;0.10;;;;;;;;;;5064446;28;20211;-76
2023/07/15 07:52:32;;;;;;;0.00;0.00;;;;;;;;;;5052869;28;20210;-76
2023/07/15 07:54:58;;;;;;;0.00;0.00;;;;;;;;;;5063993;28;20231;-75
2023/07/15 07:57:26;;;;;;;0.00;0.00;;;;;;;;;;5069325;28;20261;-75
2023/07/15 07:59:53;;;;;;;0.00;0.00;;;;;;;;;;5064201;28;20524;-75
2023/07/15 08:02:19;;;;;;;0.00;0.00;;;;;;;;;;5085945;28;20230;-76
2023/07/15 08:04:48;;;;;;;0.00;0.00;;;;;;;;;;5064207;28;20203;-75
2023/07/15 08:07:14;;;;;;;0.00;0.00;;;;;;;;;;5086030;28;20318;-75
2023/07/15 08:09:40;;;;;;;0.00;0.00;;;;;;;;;;5064104;28;20263;-75
2023/07/15 08:12:08;;;;;;;0.00;0.00;;;;;;;;;;5085831;28;20310;-76
2023/07/15 08:14:35;;;;;;;0.00;0.00;;;;;;;;;;5063979;28;20266;-76
2023/07/15 08:17:02;;;;;;;0.00;0.00;;;;;;;;;;5083946;28;20240;-75
2023/07/15 08:19:28;;;;;;;0.00;0.00;;;;;;;;;;5064965;28;20211;-76
2023/07/15 08:21:55;;;;;;;0.00;0.00;;;;;;;;;;5081991;28;20245;-75
2023/07/15 08:24:21;;;;;;;0.00;0.00;;;;;;;;;;5066970;28;20291;-75
2023/07/15 08:26:47;;;;;;;0.00;0.00;;;;;;;;;;5080012;28;20242;-76
2023/07/15 08:29:14;;;;;;;0.00;0.00;;;;;;;;;;5068853;28;20275;-75
2023/07/15 08:31:41;;;;;;;0.00;0.00;;;;;;;;;;5078054;28;20258;-75
2023/07/15 08:34:08;;;;;;;0.00;0.00;;;;;;;;;;5070458;28;20267;-75
2023/07/15 08:36:36;;;;;;;0.00;0.00;;;;;;;;;;5076647;28;20487;-75
2023/07/15 08:39:02;;;;;;;0.10;0.10;;;;;;;;;;5071804;28;20211;-74
2023/07/15 08:41:29;;;;;;;0.00;0.00;;;;;;;;;;5074936;28;20269;-76
2023/07/15 08:43:57;;;;;;;0.00;0.00;;;;;;;;;;5073522;28;20258;-75
2023/07/15 08:46:26;;;;;;;0.00;0.00;;;;;;;;;;5073535;28;20238;-76
2023/07/15 08:48:54;;;;;;;0.00;0.00;;;;;;;;;;5074575;28;20204;-75
2023/07/15 08:51:22;;;;;;;0.00;0.00;;;;;;;;;;5074194;28;20305;-76
2023/07/15 08:53:48;;;;;;;0.00;0.00;;;;;;;;;;5077469;28;20278;-76
2023/07/15 08:56:15;;;;;;;0.00;0.00;;;;;;;;;;5075148;28;20253;-76
2023/07/15 08:58:42;;;;;;;0.00;0.00;;;;;;;;;;5081170;28;20204;-76
2023/07/15 09:01:09;;;;;;;0.00;0.00;;;;;;;;;;5073204;28;20297;-76
2023/07/15 09:03:35;;;;;;;0.05;0.05;;;;;;;;;;5083193;28;20227;-75
2023/07/15 09:06:03;;;;;;;0.00;0.00;;;;;;;;;;5071507;28;20242;-76
2023/07/15 09:08:29;;;;;;;0.00;0.00;;;;;;;;;;5084540;28;20214;-76
2023/07/15 09:10:57;;;;;;;0.10;0.10;;;;;;;;;;5070022;28;20485;-75
2023/07/15 09:13:24;;;;;;;0.00;0.00;;;;;;;;;;5086334;28;20275;-76
2023/07/15 09:15:51;;;;;;;0.00;0.00;;;;;;;;;;5068298;28;20238;-77
2023/07/15 09:18:17;;;;;;;0.00;0.00;;;;;;;;;;5087867;28;20472;-76
2023/07/15 09:20:44;;;;;;;0.00;0.00;;;;;;;;;;5066399;28;20245;-76
2023/07/15 09:23:12;;;;;;;0.00;0.00;;;;;;;;;;5089751;28;20290;-77
2023/07/15 09:25:38;;;;;;;0.00;0.00;;;;;;;;;;5065053;28;20242;-76
2023/07/15 09:28:08;;;;;;;0.00;0.00;;;;;;;;;;5091058;28;20528;-75
2023/07/15 09:30:34;;;;;;;0.00;0.00;;;;;;;;;;5063927;28;20242;-77
2023/07/15 09:33:01;;;;;;;0.00;0.00;;;;;;;;;;5091884;28;20206;-75
2023/07/15 09:35:35;;;;;;;0.00;0.00;;;;;;;;;;5061720;28;20309;-77
2023/07/15 09:38:02;;;;;;;0.00;0.00;;;;;;;;;;5091404;28;20225;-77
2023/07/15 09:40:40;;;;;;;0.00;0.00;;;;;;;;;;5061994;28;20240;-77
2023/07/15 09:43:07;;;;;;;0.00;0.00;;;;;;;;;;5089969;28;20262;-77
2023/07/15 09:45:34;;;;;;;0.00;0.00;;;;;;;;;;5062677;28;20242;-75
2023/07/15 09:48:01;;;;;;;0.00;0.00;;;;;;;;;;5091838;28;20310;-76
2023/07/15 09:50:28;;;;;;;0.00;0.00;;;;;;;;;;5061358;28;20535;-77
2023/07/15 09:52:55;;;;;;;0.00;0.00;;;;;;;;;;5093490;28;20199;-76
2023/07/15 09:55:22;;;;;;;0.00;0.00;;;;;;;;;;5059725;28;20275;-77
2023/07/15 09:57:52;;;;;;;0.00;0.00;;;;;;;;;;5094565;28;20212;-77
2023/07/15 10:00:19;;;;;;;0.00;0.00;;;;;;;;;;5058640;28;20224;-76
2023/07/15 10:02:48;;;;;;;0.00;0.00;;;;;;;;;;5095311;28;20207;-78
2023/07/15 10:05:14;;;;;;;0.00;0.00;;;;;;;;;;5057057;28;20211;-77
2023/07/15 10:07:41;;;;;;;0.00;0.00;;;;;;;;;;5096689;28;20204;-76
2023/07/15 10:10:08;;;;;;;0.10;0.10;;;;;;;;;;5060455;28;20204;-76
2023/07/15 10:12:35;;;;;;;0.00;0.00;;;;;;;;;;5098144;28;20239;-74
2023/07/15 10:15:03;;;;;;;0.00;0.00;;;;;;;;;;5065894;28;20200;-76
2023/07/15 10:17:33;;;;;;;0.00;0.00;;;;;;;;;;5088228;28;20274;-75
2023/07/15 10:20:03;;;;;;;0.00;0.00;;;;;;;;;;5065837;28;20260;-75
2023/07/15 10:22:33;;;;;;;0.00;0.00;;;;;;;;;;5088049;28;20247;-75
2023/07/15 10:25:02;;;;;;;0.00;0.00;;;;;;;;;;5065919;28;20234;-75
2023/07/15 10:27:29;;;;;;;0.00;0.00;;;;;;;;;;5088047;28;20240;-75
2023/07/15 10:30:10;;;;;;;0.00;0.00;;;;;;;;;;5065666;28;20211;-75
2023/07/15 10:32:38;;;;;;;0.28;0.28;;;;;;;;;;5054043;28;20212;-76
2023/07/15 10:35:05;;;;;;;0.00;0.00;;;;;;;;;;5065618;28;20302;-76
2023/07/15 10:37:34;;;;;;;0.00;0.00;;;;;;;;;;5054431;28;20219;-76
2023/07/15 10:40:00;;;;;;;0.00;0.00;;;;;;;;;;5065711;28;20210;-76
2023/07/15 10:42:37;;;;;;;0.00;0.00;;;;;;;;;;5087671;28;20305;-77
2023/07/15 10:45:03;;;;;;;0.00;0.00;;;;;;;;;;5065249;28;20279;-77
2023/07/15 10:47:30;;;;;;;0.00;0.00;;;;;;;;;;5087565;28;20244;-77
2023/07/15 10:49:57;;;;;;;0.00;0.00;;;;;;;;;;5065594;28;20211;-77
2023/07/15 10:52:24;;;;;;;0.00;0.00;;;;;;;;;;5087364;28;20302;-77
2023/07/15 10:54:53;;;;;;;0.00;0.00;;;;;;;;;;5065445;28;20423;-75
2023/07/15 10:57:20;;;;;;;0.00;0.00;;;;;;;;;;5087376;28;20304;-77
2023/07/15 10:59:47;;;;;;;0.00;0.00;;;;;;;;;;5065244;28;20399;-77
2023/07/15 11:02:14;;;;;;;0.00;0.00;;;;;;;;;;5087347;28;20475;-76
2023/07/15 11:04:40;;;;;;;0.00;0.00;;;;;;;;;;5064916;28;20235;-76
2023/07/15 11:07:09;;;;;;;0.32;0.32;;;;;;;;;;5086720;28;20250;-77
2023/07/15 11:09:37;;;;;;;0.00;0.00;;;;;;;;;;5065180;28;20274;-76
2023/07/15 11:12:04;;;;;;;0.00;0.00;;;;;;;;;;5085990;28;20535;-77
2023/07/15 11:14:31;;;;;;;0.00;0.00;;;;;;;;;;5065482;28;20223;-77
2023/07/15 11:16:59;;;;;;;0.30;0.30;;;;;;;;;;5083017;28;20246;-75
2023/07/15 11:19:27;;;;;;;0.00;0.00;;;;;;;;;;5067209;28;20527;-77
2023/07/15 11:21:53;;;;;;;0.00;0.00;;;;;;;;;;5083096;28;20246;-77
2023/07/15 11:24:23;;;;;;;0.00;0.00;;;;;;;;;;5068233;28;20251;-77
2023/07/15 11:26:49;;;;;;;0.00;0.00;;;;;;;;;;5081758;28;20562;-77
2023/07/15 11:29:16;;;;;;;0.00;0.00;;;;;;;;;;5069264;28;20271;-77
2023/07/15 11:31:43;;;;;;;0.00;0.00;;;;;;;;;;5079987;28;20302;-74
2023/07/15 11:34:10;;;;;;;0.00;0.00;;;;;;;;;;5070997;28;20395;-77
2023/07/15 11:36:37;;;;;;;0.00;0.00;;;;;;;;;;5078398;28;20238;-77
2023/07/15 11:39:04;;;;;;;0.00;0.00;;;;;;;;;;5072751;28;20434;-77
2023/07/15 11:41:32;;;;;;;0.00;0.00;;;;;;;;;;5076342;28;20234;-77
2023/07/15 11:43:58;;;;;;;0.00;0.00;;;;;;;;;;5073811;28;20299;-77
2023/07/15 11:46:25;;;;;;;0.13;0.13;;;;;;;;;;5074767;28;20241;-76
2023/07/15 11:48:51;;;;;;;0.00;0.00;;;;;;;;;;5075670;28;20203;-77
2023/07/15 11:51:20;;;;;;;0.00;0.00;;;;;;;;;;5072869;28;20258;-77
2023/07/15 11:53:47;;;;;;;0.00;0.00;;;;;;;;;;5076849;28;20272;-76
2023/07/15 11:56:31;;;;;;;0.00;0.00;;;;;;;;;;5071614;28;20262;-75
2023/07/15 11:58:59;;;;;;;0.00;0.00;;;;;;;;;;5073546;28;20461;-75
2023/07/15 12:01:26;;;;;;;0.00;0.00;;;;;;;;;;5073977;28;20253;-77
2023/07/15 12:03:52;;;;;;;0.00;0.00;;;;;;;;;;5075832;28;20474;-77
2023/07/15 12:06:20;;;;;;;0.28;0.28;;;;;;;;;;5073128;28;20262;-77
2023/07/15 12:08:59;;;;;;;0.00;0.00;;;;;;;;;;5076676;28;20275;-77
2023/07/15 12:11:25;;;;;;;0.00;0.00;;;;;;;;;;5074469;28;20242;-75
2023/07/15 12:13:51;;;;;;;0.00;0.00;;;;;;;;;;5074839;28;20231;-76
2023/07/15 12:16:21;;;;;;;0.00;0.00;;;;;;;;;;5072554;28;20309;-76
2023/07/15 12:18:47;;;;;;;0.00;0.00;;;;;;;;;;5076551;28;20235;-77
2023/07/15 12:21:14;;;;;;;0.00;0.00;;;;;;;;;;5071348;28;20503;-76
2023/07/15 12:23:41;;;;;;;0.00;0.00;;;;;;;;;;5078000;28;20227;-76
2023/07/15 12:26:07;;;;;;;0.00;0.00;;;;;;;;;;5069513;28;20244;-75
2023/07/15 12:28:34;;;;;;;0.00;0.00;;;;;;;;;;5079426;28;20400;-75
2023/07/15 12:31:01;;;;;;;0.00;0.00;;;;;;;;;;5067293;28;20257;-77
2023/07/15 12:33:29;;;;;;;0.00;0.00;;;;;;;;;;5081513;28;20453;-76
2023/07/15 12:35:55;;;;;;;0.00;0.00;;;;;;;;;;5066369;28;20305;-76
2023/07/15 12:38:21;;;;;;;0.00;0.00;;;;;;;;;;5082908;28;20273;-75
2023/07/15 12:40:48;;;;;;;0.00;0.00;;;;;;;;;;5063923;28;20305;-76
2023/07/15 12:43:16;;;;;;;0.00;0.00;;;;;;;;;;5084849;28;20235;-77
2023/07/15 12:45:42;;;;;;;0.00;0.00;;;;;;;;;;5062513;28;20510;-75
2023/07/15 12:48:09;;;;;;;0.00;0.00;;;;;;;;;;5086493;28;20271;-77
2023/07/15 12:50:37;;;;;;;0.00;0.00;;;;;;;;;;5060835;28;20242;-77
2023/07/15 12:53:03;;;;;;;0.00;0.00;;;;;;;;;;5088043;28;20230;-77
2023/07/15 12:55:29;;;;;;;0.00;0.00;;;;;;;;;;5059240;28;20246;-76
2023/07/15 12:57:56;;;;;;;0.00;0.00;;;;;;;;;;5089574;28;20204;-74
2023/07/15 13:00:22;;;;;;;0.00;0.00;;;;;;;;;;5056997;28;20224;-71
2023/07/15 13:02:49;;;;;;;0.00;0.00;;;;;;;;;;5091508;28;20271;-71
2023/07/15 13:05:15;;;;;;;0.00;0.00;;;;;;;;;;5055274;28;20231;-72
2023/07/15 13:07:43;;;;;;;0.00;0.00;;;;;;;;;;5093273;28;20271;-71
2023/07/15 13:10:10;;;;;;;0.00;0.00;;;;;;;;;;5053701;28;20227;-72
2023/07/15 13:12:36;;;;;;;0.00;0.00;;;;;;;;;;5094835;28;20279;-72
2023/07/15 13:15:03;;;;;;;0.00;0.00;;;;;;;;;;5062958;28;20232;-72
2023/07/15 13:17:29;;;;;;;0.00;0.00;;;;;;;;;;5085153;28;20266;-72
2023/07/15 13:19:55;;;;;;;0.00;0.00;;;;;;;;;;5063022;28;20232;-72
2023/07/15 13:22:22;;;;;;;0.00;0.00;;;;;;;;;;5085293;28;20307;-72
2023/07/15 13:24:50;;;;;;;0.00;0.00;;;;;;;;;;5063131;28;20230;-72
2023/07/15 13:27:16;;;;;;;0.00;0.00;;;;;;;;;;5085197;28;20312;-72
2023/07/15 13:29:43;;;;;;;0.00;0.00;;;;;;;;;;5063099;28;20204;-72
2023/07/15 13:32:09;;;;;;;0.10;0.10;;;;;;;;;;5085072;28;20244;-73
2023/07/15 13:34:36;;;;;;;0.00;0.00;;;;;;;;;;5062828;28;20271;-73
2023/07/15 13:37:02;;;;;;;0.00;0.00;;;;;;;;;;5083551;28;20482;-72
2023/07/15 13:39:32;;;;;;;0.52;0.52;;;;;;;;;;5065561;28;20510;-73
2023/07/15 13:42:00;;;;;;;0.00;0.00;;;;;;;;;;5085773;28;20242;-72
2023/07/15 13:44:27;;;;;;;0.00;0.00;;;;;;;;;;5069120;28;20299;-73
2023/07/15 13:46:53;;;;;;;0.00;0.00;;;;;;;;;;5084328;28;20239;-73
2023/07/15 13:49:19;;;;;;;0.00;0.00;;;;;;;;;;5070714;28;20375;-73
2023/07/15 13:51:46;;;;;;;0.00;0.00;;;;;;;;;;5082405;28;20261;-72
2023/07/15 13:54:12;;;;;;;0.00;0.00;;;;;;;;;;5072459;28;20200;-73
2023/07/15 13:56:38;;;;;;;0.00;0.00;;;;;;;;;;5080338;28;20238;-73
2023/07/15 13:59:06;;;;;;;0.00;0.00;;;;;;;;;;5074182;28;20235;-72
2023/07/15 14:01:33;;;;;;;0.03;0.03;;;;;;;;;;5078594;28;20310;-71
2023/07/15 14:03:59;;;;;;;0.00;0.00;;;;;;;;;;5075728;28;20208;-72
2023/07/15 14:06:25;;;;;;;0.00;0.00;;;;;;;;;;5076922;28;20245;-72
2023/07/15 14:08:52;;;;;;;0.00;0.00;;;;;;;;;;5077103;28;20235;-72
2023/07/15 14:11:18;;;;;;;0.00;0.00;;;;;;;;;;5074751;28;20238;-74
2023/07/15 14:13:44;;;;;;;0.00;0.00;;;;;;;;;;5079400;28;20271;-74
2023/07/15 14:16:12;;;;;;;0.00;0.00;;;;;;;;;;5072675;28;20255;-73
2023/07/15 14:18:38;;;;;;;0.00;0.00;;;;;;;;;;5081191;28;20274;-73
2023/07/15 14:21:05;;;;;;;0.00;0.00;;;;;;;;;;5070884;28;20313;-73
2023/07/15 14:23:31;;;;;;;0.00;0.00;;;;;;;;;;5082568;28;20241;-73
2023/07/15 14:25:57;;;;;;;0.00;0.00;;;;;;;;;;5068434;28;20313;-73
2023/07/15 14:28:24;;;;;;;0.00;0.00;;;;;;;;;;5084966;28;20389;-73
2023/07/15 14:30:50;;;;;;;0.00;0.00;;;;;;;;;;5066797;28;20238;-73
2023/07/15 14:33:18;;;;;;;0.00;0.00;;;;;;;;;;5086486;28;20274;-73
2023/07/15 14:35:44;;;;;;;0.00;0.00;;;;;;;;;;5065365;28;20254;-73
2023/07/15 14:38:11;;;;;;;0.00;0.00;;;;;;;;;;5087985;28;20214;-71
2023/07/15 14:40:37;;;;;;;0.00;0.00;;;;;;;;;;5063260;28;20254;-72
2023/07/15 14:43:03;;;;;;;0.00;0.00;;;;;;;;;;5089729;28;20212;-73